sensor_id;sensor_type;location;lat;lon;timestamp;P1;durP1;ratioP1;P2;durP2;ratioP2
65613;SDS011;52283;49.292;10.572;2024-03-07T00:01:00;47.20;;;20.88;;
65613;SDS011;52283;49.292;10.572;2024-03-07T00:03:28;47.10;;;21.08;;
65613;SDS011;52283;49.292;10.572;2024-03-07T00:05:55;48.97;;;21.48;;
65613;SDS011;52283;49.292;10.572;2024-03-07T00:08:22;44.50;;;20.85;;
65613;SDS011;52283;49.292;10.572;2024-03-07T00:10:50;46.30;;;20.33;;
65613;SDS011;52283;49.292;10.572;2024-03-07T00:13:17;41.72;;;18.75;;
65613;SDS011;52283;49.292;10.572;2024-03-07T00:15:43;42.60;;;18.35;;
65613;SDS011;52283;49.292;10.572;2024-03-07T00:18:10;41.92;;;18.67;;
65613;SDS011;52283;49.292;10.572;2024-03-07T00:20:36;44.20;;;19.45;;
65613;SDS011;52283;49.292;10.572;2024-03-07T00:23:03;39.25;;;18.45;;
65613;SDS011;52283;49.292;10.572;2024-03-07T00:25:29;35.88;;;18.40;;
65613;SDS011;52283;49.292;10.572;2024-03-07T00:27:57;40.38;;;18.80;;
65613;SDS011;52283;49.292;10.572;2024-03-07T00:30:27;40.78;;;18.25;;
65613;SDS011;52283;49.292;10.572;2024-03-07T00:32:54;35.53;;;17.40;;
65613;SDS011;52283;49.292;10.572;2024-03-07T00:35:20;42.83;;;18.95;;
65613;SDS011;52283;49.292;10.572;2024-03-07T00:37:47;39.45;;;18.13;;
65613;SDS011;52283;49.292;10.572;2024-03-07T00:40:14;31.42;;;16.75;;
65613;SDS011;52283;49.292;10.572;2024-03-07T00:42:40;40.60;;;18.73;;
65613;SDS011;52283;49.292;10.572;2024-03-07T00:45:08;35.30;;;16.88;;
65613;SDS011;52283;49.292;10.572;2024-03-07T00:47:35;42.67;;;18.50;;
65613;SDS011;52283;49.292;10.572;2024-03-07T00:50:03;38.03;;;17.33;;
65613;SDS011;52283;49.292;10.572;2024-03-07T00:52:30;33.83;;;16.70;;
65613;SDS011;52283;49.292;10.572;2024-03-07T00:54:57;34.30;;;17.13;;
65613;SDS011;52283;49.292;10.572;2024-03-07T00:57:24;41.65;;;18.77;;
65613;SDS011;52283;49.292;10.572;2024-03-07T00:59:50;37.15;;;17.27;;
65613;SDS011;52283;49.292;10.572;2024-03-07T01:02:18;42.20;;;17.88;;
65613;SDS011;52283;49.292;10.572;2024-03-07T01:04:45;37.95;;;16.70;;
65613;SDS011;52283;49.292;10.572;2024-03-07T01:07:12;34.17;;;15.75;;
65613;SDS011;52283;49.292;10.572;2024-03-07T01:09:38;33.03;;;16.52;;
65613;SDS011;52283;49.292;10.572;2024-03-07T01:12:05;34.90;;;16.90;;
65613;SDS011;52283;49.292;10.572;2024-03-07T01:14:32;34.75;;;14.70;;
65613;SDS011;52283;49.292;10.572;2024-03-07T01:16:58;31.83;;;16.13;;
65613;SDS011;52283;49.292;10.572;2024-03-07T01:19:26;31.77;;;15.38;;
65613;SDS011;52283;49.292;10.572;2024-03-07T01:21:52;32.97;;;15.23;;
65613;SDS011;52283;49.292;10.572;2024-03-07T01:24:19;32.15;;;15.77;;
65613;SDS011;52283;49.292;10.572;2024-03-07T01:26:46;35.00;;;16.67;;
65613;SDS011;52283;49.292;10.572;2024-03-07T01:29:12;38.28;;;17.50;;
65613;SDS011;52283;49.292;10.572;2024-03-07T01:31:39;35.25;;;16.77;;
65613;SDS011;52283;49.292;10.572;2024-03-07T01:34:05;34.92;;;15.98;;
65613;SDS011;52283;49.292;10.572;2024-03-07T01:36:33;42.45;;;16.52;;
65613;SDS011;52283;49.292;10.572;2024-03-07T01:39:00;37.33;;;17.17;;
65613;SDS011;52283;49.292;10.572;2024-03-07T01:41:26;38.40;;;18.00;;
65613;SDS011;52283;49.292;10.572;2024-03-07T01:43:53;43.70;;;17.52;;
65613;SDS011;52283;49.292;10.572;2024-03-07T01:46:19;42.40;;;18.95;;
65613;SDS011;52283;49.292;10.572;2024-03-07T01:48:46;34.65;;;16.08;;
65613;SDS011;52283;49.292;10.572;2024-03-07T01:51:13;42.40;;;18.35;;
65613;SDS011;52283;49.292;10.572;2024-03-07T01:53:41;36.80;;;17.98;;
65613;SDS011;52283;49.292;10.572;2024-03-07T01:56:07;40.65;;;19.70;;
65613;SDS011;52283;49.292;10.572;2024-03-07T01:58:34;43.55;;;18.98;;
65613;SDS011;52283;49.292;10.572;2024-03-07T02:01:02;44.63;;;19.25;;
65613;SDS011;52283;49.292;10.572;2024-03-07T02:03:29;41.70;;;21.42;;
65613;SDS011;52283;49.292;10.572;2024-03-07T02:05:56;41.92;;;19.45;;
65613;SDS011;52283;49.292;10.572;2024-03-07T02:08:23;37.53;;;16.88;;
65613;SDS011;52283;49.292;10.572;2024-03-07T02:10:51;36.30;;;18.20;;
65613;SDS011;52283;49.292;10.572;2024-03-07T02:13:17;44.35;;;20.02;;
65613;SDS011;52283;49.292;10.572;2024-03-07T02:15:44;37.75;;;17.75;;
65613;SDS011;52283;49.292;10.572;2024-03-07T02:18:11;37.75;;;18.35;;
65613;SDS011;52283;49.292;10.572;2024-03-07T02:20:37;37.47;;;17.52;;
65613;SDS011;52283;49.292;10.572;2024-03-07T02:23:06;38.55;;;16.52;;
65613;SDS011;52283;49.292;10.572;2024-03-07T02:25:33;43.15;;;18.08;;
65613;SDS011;52283;49.292;10.572;2024-03-07T02:28:02;34.00;;;16.88;;
65613;SDS011;52283;49.292;10.572;2024-03-07T02:30:29;35.08;;;16.55;;
65613;SDS011;52283;49.292;10.572;2024-03-07T02:32:57;35.70;;;15.32;;
65613;SDS011;52283;49.292;10.572;2024-03-07T02:35:31;30.88;;;14.48;;
65613;SDS011;52283;49.292;10.572;2024-03-07T02:37:58;33.85;;;15.88;;
65613;SDS011;52283;49.292;10.572;2024-03-07T02:40:28;32.60;;;15.40;;
65613;SDS011;52283;49.292;10.572;2024-03-07T02:42:57;32.03;;;15.30;;
65613;SDS011;52283;49.292;10.572;2024-03-07T02:45:24;30.60;;;14.95;;
65613;SDS011;52283;49.292;10.572;2024-03-07T02:47:50;29.63;;;15.13;;
65613;SDS011;52283;49.292;10.572;2024-03-07T02:50:18;31.98;;;15.18;;
65613;SDS011;52283;49.292;10.572;2024-03-07T02:52:46;31.40;;;15.15;;
65613;SDS011;52283;49.292;10.572;2024-03-07T02:55:13;29.63;;;13.65;;
65613;SDS011;52283;49.292;10.572;2024-03-07T02:57:41;28.38;;;13.77;;
65613;SDS011;52283;49.292;10.572;2024-03-07T03:00:09;30.45;;;13.45;;
65613;SDS011;52283;49.292;10.572;2024-03-07T03:02:44;30.67;;;14.55;;
65613;SDS011;52283;49.292;10.572;2024-03-07T03:05:12;25.30;;;12.35;;
65613;SDS011;52283;49.292;10.572;2024-03-07T03:07:39;26.08;;;11.48;;
65613;SDS011;52283;49.292;10.572;2024-03-07T03:10:06;28.05;;;12.75;;
65613;SDS011;52283;49.292;10.572;2024-03-07T03:12:34;28.35;;;11.98;;
65613;SDS011;52283;49.292;10.572;2024-03-07T03:15:03;27.88;;;13.15;;
65613;SDS011;52283;49.292;10.572;2024-03-07T03:17:31;24.80;;;12.43;;
65613;SDS011;52283;49.292;10.572;2024-03-07T03:19:57;24.98;;;12.20;;
65613;SDS011;52283;49.292;10.572;2024-03-07T03:22:23;25.27;;;12.80;;
65613;SDS011;52283;49.292;10.572;2024-03-07T03:24:52;27.15;;;13.25;;
65613;SDS011;52283;49.292;10.572;2024-03-07T03:27:20;26.52;;;12.85;;
65613;SDS011;52283;49.292;10.572;2024-03-07T03:29:47;26.98;;;13.13;;
65613;SDS011;52283;49.292;10.572;2024-03-07T03:32:17;26.88;;;12.50;;
65613;SDS011;52283;49.292;10.572;2024-03-07T03:34:43;25.00;;;13.27;;
65613;SDS011;52283;49.292;10.572;2024-03-07T03:37:09;26.38;;;12.63;;
65613;SDS011;52283;49.292;10.572;2024-03-07T03:39:36;27.60;;;13.43;;
65613;SDS011;52283;49.292;10.572;2024-03-07T03:42:03;23.30;;;11.20;;
65613;SDS011;52283;49.292;10.572;2024-03-07T03:44:31;25.95;;;12.02;;
65613;SDS011;52283;49.292;10.572;2024-03-07T03:46:59;25.50;;;12.30;;
65613;SDS011;52283;49.292;10.572;2024-03-07T03:49:30;26.08;;;12.77;;
65613;SDS011;52283;49.292;10.572;2024-03-07T03:51:56;21.98;;;11.73;;
65613;SDS011;52283;49.292;10.572;2024-03-07T03:54:24;24.20;;;12.35;;
65613;SDS011;52283;49.292;10.572;2024-03-07T03:56:51;24.65;;;12.27;;
65613;SDS011;52283;49.292;10.572;2024-03-07T03:59:17;27.15;;;12.52;;
65613;SDS011;52283;49.292;10.572;2024-03-07T04:01:44;22.25;;;11.45;;
65613;SDS011;52283;49.292;10.572;2024-03-07T04:04:11;24.58;;;13.20;;
65613;SDS011;52283;49.292;10.572;2024-03-07T04:06:39;24.70;;;11.93;;
65613;SDS011;52283;49.292;10.572;2024-03-07T04:09:06;25.38;;;11.82;;
65613;SDS011;52283;49.292;10.572;2024-03-07T04:11:33;28.33;;;11.55;;
65613;SDS011;52283;49.292;10.572;2024-03-07T04:13:59;25.15;;;12.27;;
65613;SDS011;52283;49.292;10.572;2024-03-07T04:16:26;20.30;;;11.65;;
65613;SDS011;52283;49.292;10.572;2024-03-07T04:18:52;21.17;;;10.77;;
65613;SDS011;52283;49.292;10.572;2024-03-07T04:21:19;38.72;;;12.88;;
65613;SDS011;52283;49.292;10.572;2024-03-07T04:23:47;26.35;;;11.68;;
65613;SDS011;52283;49.292;10.572;2024-03-07T04:26:13;24.40;;;13.30;;
65613;SDS011;52283;49.292;10.572;2024-03-07T04:28:40;20.60;;;11.13;;
65613;SDS011;52283;49.292;10.572;2024-03-07T04:31:07;22.13;;;10.45;;
65613;SDS011;52283;49.292;10.572;2024-03-07T04:33:33;22.08;;;11.25;;
65613;SDS011;52283;49.292;10.572;2024-03-07T04:36:00;23.17;;;12.85;;
65613;SDS011;52283;49.292;10.572;2024-03-07T04:38:27;24.33;;;11.05;;
65613;SDS011;52283;49.292;10.572;2024-03-07T04:40:55;24.35;;;11.18;;
65613;SDS011;52283;49.292;10.572;2024-03-07T04:43:21;21.67;;;10.75;;
65613;SDS011;52283;49.292;10.572;2024-03-07T04:45:48;22.27;;;11.52;;
65613;SDS011;52283;49.292;10.572;2024-03-07T04:48:14;20.85;;;10.63;;
65613;SDS011;52283;49.292;10.572;2024-03-07T04:50:41;22.35;;;11.45;;
65613;SDS011;52283;49.292;10.572;2024-03-07T04:53:07;19.77;;;10.70;;
65613;SDS011;52283;49.292;10.572;2024-03-07T04:55:34;20.05;;;10.10;;
65613;SDS011;52283;49.292;10.572;2024-03-07T04:58:02;23.00;;;10.98;;
65613;SDS011;52283;49.292;10.572;2024-03-07T05:00:29;21.75;;;10.73;;
65613;SDS011;52283;49.292;10.572;2024-03-07T05:02:56;20.05;;;10.25;;
65613;SDS011;52283;49.292;10.572;2024-03-07T05:05:22;23.70;;;11.23;;
65613;SDS011;52283;49.292;10.572;2024-03-07T05:07:50;22.98;;;11.00;;
65613;SDS011;52283;49.292;10.572;2024-03-07T05:10:17;21.25;;;10.95;;
65613;SDS011;52283;49.292;10.572;2024-03-07T05:12:44;19.30;;;11.45;;
65613;SDS011;52283;49.292;10.572;2024-03-07T05:15:12;20.10;;;10.23;;
65613;SDS011;52283;49.292;10.572;2024-03-07T05:17:38;21.10;;;10.23;;
65613;SDS011;52283;49.292;10.572;2024-03-07T05:20:08;18.25;;;10.77;;
65613;SDS011;52283;49.292;10.572;2024-03-07T05:22:35;20.98;;;10.23;;
65613;SDS011;52283;49.292;10.572;2024-03-07T05:25:04;23.63;;;10.88;;
65613;SDS011;52283;49.292;10.572;2024-03-07T05:27:31;18.55;;;9.85;;
65613;SDS011;52283;49.292;10.572;2024-03-07T05:29:58;22.90;;;11.40;;
65613;SDS011;52283;49.292;10.572;2024-03-07T05:32:26;20.75;;;10.02;;
65613;SDS011;52283;49.292;10.572;2024-03-07T05:34:53;18.63;;;9.73;;
65613;SDS011;52283;49.292;10.572;2024-03-07T05:37:19;19.27;;;11.32;;
65613;SDS011;52283;49.292;10.572;2024-03-07T05:39:46;19.05;;;8.88;;
65613;SDS011;52283;49.292;10.572;2024-03-07T05:42:13;23.38;;;10.68;;
65613;SDS011;52283;49.292;10.572;2024-03-07T05:44:40;18.88;;;10.05;;
65613;SDS011;52283;49.292;10.572;2024-03-07T05:47:07;20.42;;;10.55;;
65613;SDS011;52283;49.292;10.572;2024-03-07T05:49:35;21.10;;;11.43;;
65613;SDS011;52283;49.292;10.572;2024-03-07T05:52:02;20.67;;;9.82;;
65613;SDS011;52283;49.292;10.572;2024-03-07T05:54:30;21.30;;;10.43;;
65613;SDS011;52283;49.292;10.572;2024-03-07T05:56:57;21.98;;;10.40;;
65613;SDS011;52283;49.292;10.572;2024-03-07T05:59:24;19.50;;;9.73;;
65613;SDS011;52283;49.292;10.572;2024-03-07T06:01:50;21.48;;;10.30;;
65613;SDS011;52283;49.292;10.572;2024-03-07T06:04:17;16.05;;;9.68;;
65613;SDS011;52283;49.292;10.572;2024-03-07T06:06:47;23.33;;;10.93;;
65613;SDS011;52283;49.292;10.572;2024-03-07T06:09:13;20.98;;;10.10;;
65613;SDS011;52283;49.292;10.572;2024-03-07T06:11:40;19.77;;;9.90;;
65613;SDS011;52283;49.292;10.572;2024-03-07T06:14:08;20.58;;;10.65;;
65613;SDS011;52283;49.292;10.572;2024-03-07T06:16:36;21.02;;;10.20;;
65613;SDS011;52283;49.292;10.572;2024-03-07T06:19:04;25.52;;;11.07;;
65613;SDS011;52283;49.292;10.572;2024-03-07T06:21:32;18.38;;;10.50;;
65613;SDS011;52283;49.292;10.572;2024-03-07T06:24:00;21.92;;;10.65;;
65613;SDS011;52283;49.292;10.572;2024-03-07T06:26:27;23.38;;;10.82;;
65613;SDS011;52283;49.292;10.572;2024-03-07T06:29:11;20.30;;;11.05;;
65613;SDS011;52283;49.292;10.572;2024-03-07T06:31:42;23.17;;;11.68;;
65613;SDS011;52283;49.292;10.572;2024-03-07T06:34:08;19.88;;;10.35;;
65613;SDS011;52283;49.292;10.572;2024-03-07T06:36:35;24.13;;;10.73;;
65613;SDS011;52283;49.292;10.572;2024-03-07T06:39:03;21.63;;;10.05;;
65613;SDS011;52283;49.292;10.572;2024-03-07T06:41:31;20.85;;;10.07;;
65613;SDS011;52283;49.292;10.572;2024-03-07T06:43:57;20.02;;;10.98;;
65613;SDS011;52283;49.292;10.572;2024-03-07T06:46:24;33.97;;;12.20;;
65613;SDS011;52283;49.292;10.572;2024-03-07T06:48:50;22.35;;;10.10;;
65613;SDS011;52283;49.292;10.572;2024-03-07T06:51:17;21.15;;;10.48;;
65613;SDS011;52283;49.292;10.572;2024-03-07T06:53:44;25.05;;;10.98;;
65613;SDS011;52283;49.292;10.572;2024-03-07T06:56:13;30.77;;;11.55;;
65613;SDS011;52283;49.292;10.572;2024-03-07T06:58:39;41.58;;;18.60;;
65613;SDS011;52283;49.292;10.572;2024-03-07T07:01:07;31.08;;;14.27;;
65613;SDS011;52283;49.292;10.572;2024-03-07T07:03:35;26.20;;;13.02;;
65613;SDS011;52283;49.292;10.572;2024-03-07T07:06:02;23.98;;;13.20;;
65613;SDS011;52283;49.292;10.572;2024-03-07T07:08:31;25.23;;;12.63;;
65613;SDS011;52283;49.292;10.572;2024-03-07T07:10:57;24.58;;;11.10;;
65613;SDS011;52283;49.292;10.572;2024-03-07T07:13:25;23.52;;;11.77;;
65613;SDS011;52283;49.292;10.572;2024-03-07T07:15:52;23.73;;;12.18;;
65613;SDS011;52283;49.292;10.572;2024-03-07T07:18:19;25.45;;;12.43;;
65613;SDS011;52283;49.292;10.572;2024-03-07T07:20:46;25.83;;;12.32;;
65613;SDS011;52283;49.292;10.572;2024-03-07T07:23:13;29.20;;;13.75;;
65613;SDS011;52283;49.292;10.572;2024-03-07T07:25:39;27.95;;;13.05;;
65613;SDS011;52283;49.292;10.572;2024-03-07T07:28:06;23.23;;;11.60;;
65613;SDS011;52283;49.292;10.572;2024-03-07T07:30:34;22.15;;;11.15;;
65613;SDS011;52283;49.292;10.572;2024-03-07T07:33:00;25.40;;;12.27;;
65613;SDS011;52283;49.292;10.572;2024-03-07T07:35:27;24.38;;;11.88;;
65613;SDS011;52283;49.292;10.572;2024-03-07T07:37:53;25.60;;;11.23;;
65613;SDS011;52283;49.292;10.572;2024-03-07T07:40:21;25.40;;;11.20;;
65613;SDS011;52283;49.292;10.572;2024-03-07T07:42:50;23.75;;;11.48;;
65613;SDS011;52283;49.292;10.572;2024-03-07T07:45:18;24.40;;;11.32;;
65613;SDS011;52283;49.292;10.572;2024-03-07T07:47:47;28.02;;;12.10;;
65613;SDS011;52283;49.292;10.572;2024-03-07T07:50:16;22.65;;;11.57;;
65613;SDS011;52283;49.292;10.572;2024-03-07T07:52:44;22.92;;;12.20;;
65613;SDS011;52283;49.292;10.572;2024-03-07T07:55:13;24.15;;;12.25;;
65613;SDS011;52283;49.292;10.572;2024-03-07T07:57:40;21.48;;;11.70;;
65613;SDS011;52283;49.292;10.572;2024-03-07T08:00:09;22.67;;;11.88;;
65613;SDS011;52283;49.292;10.572;2024-03-07T08:02:47;24.02;;;12.88;;
65613;SDS011;52283;49.292;10.572;2024-03-07T08:05:15;24.77;;;12.73;;
65613;SDS011;52283;49.292;10.572;2024-03-07T08:07:43;21.70;;;11.65;;
65613;SDS011;52283;49.292;10.572;2024-03-07T08:10:09;23.70;;;12.45;;
65613;SDS011;52283;49.292;10.572;2024-03-07T08:12:36;20.48;;;10.30;;
65613;SDS011;52283;49.292;10.572;2024-03-07T08:15:03;21.20;;;11.40;;
65613;SDS011;52283;49.292;10.572;2024-03-07T08:17:29;24.30;;;10.13;;
65613;SDS011;52283;49.292;10.572;2024-03-07T08:19:58;27.30;;;12.18;;
65613;SDS011;52283;49.292;10.572;2024-03-07T08:22:24;27.95;;;11.50;;
65613;SDS011;52283;49.292;10.572;2024-03-07T08:24:51;22.80;;;12.13;;
65613;SDS011;52283;49.292;10.572;2024-03-07T08:27:17;25.15;;;12.25;;
65613;SDS011;52283;49.292;10.572;2024-03-07T08:29:44;23.85;;;11.77;;
65613;SDS011;52283;49.292;10.572;2024-03-07T08:32:10;21.10;;;10.95;;
65613;SDS011;52283;49.292;10.572;2024-03-07T08:34:37;25.70;;;12.90;;
65613;SDS011;52283;49.292;10.572;2024-03-07T08:37:05;21.88;;;10.82;;
65613;SDS011;52283;49.292;10.572;2024-03-07T08:39:31;22.98;;;12.05;;
65613;SDS011;52283;49.292;10.572;2024-03-07T08:41:58;23.67;;;11.73;;
65613;SDS011;52283;49.292;10.572;2024-03-07T08:44:24;23.15;;;12.13;;
65613;SDS011;52283;49.292;10.572;2024-03-07T08:46:51;21.08;;;11.60;;
65613;SDS011;52283;49.292;10.572;2024-03-07T08:49:17;20.88;;;10.02;;
65613;SDS011;52283;49.292;10.572;2024-03-07T08:51:44;22.70;;;10.85;;
65613;SDS011;52283;49.292;10.572;2024-03-07T08:54:13;19.90;;;10.43;;
65613;SDS011;52283;49.292;10.572;2024-03-07T08:56:40;25.23;;;11.68;;
65613;SDS011;52283;49.292;10.572;2024-03-07T08:59:06;19.58;;;10.55;;
65613;SDS011;52283;49.292;10.572;2024-03-07T09:01:33;20.55;;;9.90;;
65613;SDS011;52283;49.292;10.572;2024-03-07T09:03:59;21.15;;;12.23;;
65613;SDS011;52283;49.292;10.572;2024-03-07T09:06:26;21.17;;;11.85;;
65613;SDS011;52283;49.292;10.572;2024-03-07T09:08:52;21.98;;;11.10;;
65613;SDS011;52283;49.292;10.572;2024-03-07T09:11:20;21.02;;;11.07;;
65613;SDS011;52283;49.292;10.572;2024-03-07T09:13:47;25.25;;;11.40;;
65613;SDS011;52283;49.292;10.572;2024-03-07T09:16:14;19.73;;;11.15;;
65613;SDS011;52283;49.292;10.572;2024-03-07T09:18:41;16.40;;;9.82;;
65613;SDS011;52283;49.292;10.572;2024-03-07T09:21:07;18.65;;;9.98;;
65613;SDS011;52283;49.292;10.572;2024-03-07T09:23:34;20.25;;;10.52;;
65613;SDS011;52283;49.292;10.572;2024-03-07T09:26:00;22.05;;;10.30;;
65613;SDS011;52283;49.292;10.572;2024-03-07T09:28:29;19.90;;;10.98;;
65613;SDS011;52283;49.292;10.572;2024-03-07T09:30:55;23.63;;;11.90;;
65613;SDS011;52283;49.292;10.572;2024-03-07T09:33:22;25.08;;;10.93;;
65613;SDS011;52283;49.292;10.572;2024-03-07T09:35:49;20.02;;;10.77;;
65613;SDS011;52283;49.292;10.572;2024-03-07T09:38:16;25.73;;;11.13;;
65613;SDS011;52283;49.292;10.572;2024-03-07T09:40:42;21.95;;;9.75;;
65613;SDS011;52283;49.292;10.572;2024-03-07T09:43:09;20.63;;;10.52;;
65613;SDS011;52283;49.292;10.572;2024-03-07T09:45:40;21.25;;;10.40;;
65613;SDS011;52283;49.292;10.572;2024-03-07T09:48:07;22.48;;;10.43;;
65613;SDS011;52283;49.292;10.572;2024-03-07T09:50:35;19.65;;;10.10;;
65613;SDS011;52283;49.292;10.572;2024-03-07T09:53:03;22.58;;;11.27;;
65613;SDS011;52283;49.292;10.572;2024-03-07T09:55:30;22.60;;;11.60;;
65613;SDS011;52283;49.292;10.572;2024-03-07T09:57:57;20.92;;;11.23;;
65613;SDS011;52283;49.292;10.572;2024-03-07T10:00:26;20.83;;;10.80;;
65613;SDS011;52283;49.292;10.572;2024-03-07T10:02:56;21.98;;;9.38;;
65613;SDS011;52283;49.292;10.572;2024-03-07T10:05:23;19.20;;;10.23;;
65613;SDS011;52283;49.292;10.572;2024-03-07T10:07:53;19.88;;;10.85;;
65613;SDS011;52283;49.292;10.572;2024-03-07T10:10:19;20.27;;;11.00;;
65613;SDS011;52283;49.292;10.572;2024-03-07T10:12:47;17.88;;;9.48;;
65613;SDS011;52283;49.292;10.572;2024-03-07T10:15:14;20.90;;;9.88;;
65613;SDS011;52283;49.292;10.572;2024-03-07T10:17:42;25.05;;;11.98;;
65613;SDS011;52283;49.292;10.572;2024-03-07T10:20:17;20.88;;;10.65;;
65613;SDS011;52283;49.292;10.572;2024-03-07T10:22:45;19.23;;;10.77;;
65613;SDS011;52283;49.292;10.572;2024-03-07T10:25:12;23.00;;;11.18;;
65613;SDS011;52283;49.292;10.572;2024-03-07T10:27:39;21.10;;;12.18;;
65613;SDS011;52283;49.292;10.572;2024-03-07T10:30:07;24.52;;;13.02;;
65613;SDS011;52283;49.292;10.572;2024-03-07T10:32:34;22.33;;;10.70;;
65613;SDS011;52283;49.292;10.572;2024-03-07T10:35:01;19.48;;;10.63;;
65613;SDS011;52283;49.292;10.572;2024-03-07T10:37:29;17.70;;;10.00;;
65613;SDS011;52283;49.292;10.572;2024-03-07T10:39:56;21.90;;;10.75;;
65613;SDS011;52283;49.292;10.572;2024-03-07T10:42:22;27.35;;;11.25;;
65613;SDS011;52283;49.292;10.572;2024-03-07T10:44:55;21.30;;;10.48;;
65613;SDS011;52283;49.292;10.572;2024-03-07T10:47:29;19.00;;;11.20;;
65613;SDS011;52283;49.292;10.572;2024-03-07T10:52:39;24.95;;;10.80;;
65613;SDS011;52283;49.292;10.572;2024-03-07T10:55:12;21.55;;;11.57;;
65613;SDS011;52283;49.292;10.572;2024-03-07T10:57:49;24.05;;;10.90;;
65613;SDS011;52283;49.292;10.572;2024-03-07T11:00:18;23.65;;;11.40;;
65613;SDS011;52283;49.292;10.572;2024-03-07T11:03:00;19.60;;;11.25;;
65613;SDS011;52283;49.292;10.572;2024-03-07T11:08:00;21.52;;;11.77;;
65613;SDS011;52283;49.292;10.572;2024-03-07T11:10:32;22.92;;;11.48;;
65613;SDS011;52283;49.292;10.572;2024-03-07T11:12:59;27.80;;;11.23;;
65613;SDS011;52283;49.292;10.572;2024-03-07T11:15:26;24.73;;;11.35;;
65613;SDS011;52283;49.292;10.572;2024-03-07T11:17:54;23.88;;;10.88;;
65613;SDS011;52283;49.292;10.572;2024-03-07T11:20:22;21.67;;;11.98;;
65613;SDS011;52283;49.292;10.572;2024-03-07T11:22:49;21.17;;;10.82;;
65613;SDS011;52283;49.292;10.572;2024-03-07T11:25:21;20.98;;;9.93;;
65613;SDS011;52283;49.292;10.572;2024-03-07T11:27:51;14.23;;;8.85;;
65613;SDS011;52283;49.292;10.572;2024-03-07T11:30:19;16.52;;;9.20;;
65613;SDS011;52283;49.292;10.572;2024-03-07T11:32:46;15.38;;;8.40;;
65613;SDS011;52283;49.292;10.572;2024-03-07T11:35:14;15.35;;;8.23;;
65613;SDS011;52283;49.292;10.572;2024-03-07T11:37:41;18.20;;;8.18;;
65613;SDS011;52283;49.292;10.572;2024-03-07T11:40:11;15.13;;;7.83;;
65613;SDS011;52283;49.292;10.572;2024-03-07T11:42:45;19.27;;;8.77;;
65613;SDS011;52283;49.292;10.572;2024-03-07T11:45:13;20.30;;;9.77;;
65613;SDS011;52283;49.292;10.572;2024-03-07T11:47:50;14.95;;;8.70;;
65613;SDS011;52283;49.292;10.572;2024-03-07T11:50:22;14.13;;;8.65;;
65613;SDS011;52283;49.292;10.572;2024-03-07T11:52:50;16.73;;;9.65;;
65613;SDS011;52283;49.292;10.572;2024-03-07T11:55:19;19.63;;;9.02;;
65613;SDS011;52283;49.292;10.572;2024-03-07T11:57:48;19.25;;;9.02;;
65613;SDS011;52283;49.292;10.572;2024-03-07T12:00:17;14.82;;;8.05;;
65613;SDS011;52283;49.292;10.572;2024-03-07T12:02:44;15.98;;;8.13;;
65613;SDS011;52283;49.292;10.572;2024-03-07T12:05:13;17.02;;;7.63;;
65613;SDS011;52283;49.292;10.572;2024-03-07T12:07:41;13.95;;;7.85;;
65613;SDS011;52283;49.292;10.572;2024-03-07T12:10:08;15.15;;;9.02;;
65613;SDS011;52283;49.292;10.572;2024-03-07T12:12:35;13.23;;;7.88;;
65613;SDS011;52283;49.292;10.572;2024-03-07T12:15:05;18.08;;;8.63;;
65613;SDS011;52283;49.292;10.572;2024-03-07T12:17:39;17.83;;;9.60;;
65613;SDS011;52283;49.292;10.572;2024-03-07T12:20:07;15.50;;;8.73;;
65613;SDS011;52283;49.292;10.572;2024-03-07T12:22:49;17.88;;;8.75;;
65613;SDS011;52283;49.292;10.572;2024-03-07T12:25:18;16.95;;;8.93;;
65613;SDS011;52283;49.292;10.572;2024-03-07T12:27:46;15.00;;;8.80;;
65613;SDS011;52283;49.292;10.572;2024-03-07T12:30:16;17.40;;;8.98;;
65613;SDS011;52283;49.292;10.572;2024-03-07T12:32:47;16.90;;;9.45;;
65613;SDS011;52283;49.292;10.572;2024-03-07T12:35:14;15.55;;;8.85;;
65613;SDS011;52283;49.292;10.572;2024-03-07T12:37:40;18.92;;;8.80;;
65613;SDS011;52283;49.292;10.572;2024-03-07T12:40:11;15.07;;;8.65;;
65613;SDS011;52283;49.292;10.572;2024-03-07T12:42:45;16.45;;;8.63;;
65613;SDS011;52283;49.292;10.572;2024-03-07T12:45:12;14.15;;;7.93;;
65613;SDS011;52283;49.292;10.572;2024-03-07T12:47:44;18.90;;;10.30;;
65613;SDS011;52283;49.292;10.572;2024-03-07T12:50:15;16.98;;;9.23;;
65613;SDS011;52283;49.292;10.572;2024-03-07T12:52:42;18.70;;;8.95;;
65613;SDS011;52283;49.292;10.572;2024-03-07T12:55:09;18.38;;;9.30;;
65613;SDS011;52283;49.292;10.572;2024-03-07T12:57:38;14.25;;;8.13;;
65613;SDS011;52283;49.292;10.572;2024-03-07T13:00:06;18.15;;;9.68;;
65613;SDS011;52283;49.292;10.572;2024-03-07T13:02:45;19.73;;;9.02;;
65613;SDS011;52283;49.292;10.572;2024-03-07T13:05:12;17.40;;;10.00;;
65613;SDS011;52283;49.292;10.572;2024-03-07T13:07:44;15.88;;;8.55;;
65613;SDS011;52283;49.292;10.572;2024-03-07T13:10:12;16.27;;;9.73;;
65613;SDS011;52283;49.292;10.572;2024-03-07T13:12:40;16.42;;;8.75;;
65613;SDS011;52283;49.292;10.572;2024-03-07T13:15:08;17.40;;;9.80;;
65613;SDS011;52283;49.292;10.572;2024-03-07T13:17:36;17.58;;;10.05;;
65613;SDS011;52283;49.292;10.572;2024-03-07T13:20:05;19.70;;;8.85;;
65613;SDS011;52283;49.292;10.572;2024-03-07T13:22:37;19.08;;;9.25;;
65613;SDS011;52283;49.292;10.572;2024-03-07T13:25:04;19.50;;;9.82;;
65613;SDS011;52283;49.292;10.572;2024-03-07T13:27:39;18.90;;;9.23;;
65613;SDS011;52283;49.292;10.572;2024-03-07T13:30:09;16.58;;;9.80;;
65613;SDS011;52283;49.292;10.572;2024-03-07T13:32:47;14.43;;;9.10;;
65613;SDS011;52283;49.292;10.572;2024-03-07T13:35:16;18.77;;;8.85;;
65613;SDS011;52283;49.292;10.572;2024-03-07T13:37:44;16.05;;;9.30;;
65613;SDS011;52283;49.292;10.572;2024-03-07T13:40:12;18.90;;;9.65;;
65613;SDS011;52283;49.292;10.572;2024-03-07T13:42:48;19.90;;;9.93;;
65613;SDS011;52283;49.292;10.572;2024-03-07T13:45:16;15.15;;;9.00;;
65613;SDS011;52283;49.292;10.572;2024-03-07T13:47:43;17.88;;;10.23;;
65613;SDS011;52283;49.292;10.572;2024-03-07T13:50:10;19.90;;;10.15;;
65613;SDS011;52283;49.292;10.572;2024-03-07T13:52:39;19.60;;;10.27;;
65613;SDS011;52283;49.292;10.572;2024-03-07T13:57:48;20.27;;;9.20;;
65613;SDS011;52283;49.292;10.572;2024-03-07T14:00:26;16.83;;;9.95;;
65613;SDS011;52283;49.292;10.572;2024-03-07T14:03:26;19.20;;;10.60;;
65613;SDS011;52283;49.292;10.572;2024-03-07T14:06:10;17.40;;;10.38;;
65613;SDS011;52283;49.292;10.572;2024-03-07T14:12:04;17.50;;;10.35;;
65613;SDS011;52283;49.292;10.572;2024-03-07T14:17:52;24.63;;;11.50;;
65613;SDS011;52283;49.292;10.572;2024-03-07T14:20:59;22.25;;;10.88;;
65613;SDS011;52283;49.292;10.572;2024-03-07T14:24:00;21.08;;;10.48;;
65613;SDS011;52283;49.292;10.572;2024-03-07T14:29:45;17.90;;;9.75;;
65613;SDS011;52283;49.292;10.572;2024-03-07T14:32:19;20.70;;;10.75;;
65613;SDS011;52283;49.292;10.572;2024-03-07T14:34:47;22.70;;;10.55;;